マイアミ の空港の天気 - METARとTAF

マイアミ国際空港 ( KMIA / MIA ) - アメリカ フロリダ州マイアミ
飛行場実況気象(Metar)
観測時間12/09 23:53 EST (12/10 04:53 UTC)
風向・風速西 3m/s
視程10km以上
天気現象
少しの雲 雲底高度 550m
全天の8割程度の雲 雲底高度 2440m
全天の8割程度の雲 雲底高度 4570m
全天の8割程度の雲 雲底高度 6100m
気温22.2℃
湿度93%
気圧1015.3hPa
METARKMIA 100453Z 26005KT 10SM FEW018 BKN080 BKN150 BKN200 22/21 A2998 RMK AO2 SLP153 T02220211 402890222 $
過去の天気等 Google飛行場航空写真 Wunderground天気予報

過去48時間のMETAR

飛行場予報(TAF)
発表時間: 12/10 00:27 EST (12/10 05:27 UTC)
予報対象時間: 10日1時 EST ~ 11日7時 EST
風向・風速西南西 4m/s
視程10km以上
全天の4割程度の雲 雲底高度 610m
全天の8割程度の雲 雲底高度 2440m
全天の8割程度の雲 雲底高度 6100m
10日8時 EST から
風向・風速西北西 4m/s
視程10km以上
全天の4割程度の雲 雲底高度 610m
全天の8割程度の雲 雲底高度 1220m
10日13時 EST から
風向・風速西北西 6m/s 瞬間風速 11m/s
視程10km以上
全天の4割程度の雲 雲底高度 1220m
全天の8割程度の雲 雲底高度 7620m
10日19時 EST から
風向・風速北西 3m/s
視程10km以上
全天の4割程度の雲 雲底高度 1220m
全天の8割程度の雲 雲底高度 7620m
KMIA 100527Z 1006/1112 25007KT P6SM SCT020 BKN080 BKN200
FM101300 29008KT P6SM SCT020 BKN040
FM101800 30012G22KT P6SM SCT040 BKN250
FM110000 31006KT P6SM SCT040 BKN250